createdAt,value
2023-02-04T00:00:37.513Z,99767.17
2023-02-04T00:03:06.421Z,99767.26
2023-02-04T00:05:35.429Z,99768.00
2023-02-04T00:08:06.630Z,99766.73
2023-02-04T00:10:36.517Z,99766.98
2023-02-04T00:13:04.929Z,99764.83
2023-02-04T00:15:36.512Z,99766.13
2023-02-04T00:18:05.705Z,99769.18
2023-02-04T00:20:34.001Z,99768.52
2023-02-04T00:23:01.988Z,99764.25
2023-02-04T00:25:30.214Z,99764.70
2023-02-04T00:27:58.715Z,99762.39
2023-02-04T00:30:26.962Z,99764.18
2023-02-04T00:32:56.665Z,99761.08
2023-02-04T00:35:24.766Z,99756.86
2023-02-04T00:37:53.595Z,99754.49
2023-02-04T00:40:21.672Z,99752.92
2023-02-04T00:42:49.985Z,99750.52
2023-02-04T00:45:18.362Z,99749.61
2023-02-04T00:47:46.530Z,99750.08
2023-02-04T00:50:15.330Z,99752.10
2023-02-04T00:52:45.035Z,99752.15
2023-02-04T00:55:13.715Z,99759.18
2023-02-04T00:57:41.829Z,99760.55
2023-02-04T01:00:11.289Z,99763.51
2023-02-04T01:02:40.893Z,99761.41
2023-02-04T01:05:09.226Z,99761.45
2023-02-04T01:07:40.761Z,99756.89
2023-02-04T01:10:10.344Z,99760.98
2023-02-04T01:12:38.680Z,99762.72
2023-02-04T01:15:07.944Z,99762.41
2023-02-04T01:17:36.276Z,99761.59
2023-02-04T01:20:04.675Z,99764.80
2023-02-04T01:22:33.262Z,99764.41
2023-02-04T01:25:01.430Z,99760.59
2023-02-04T01:27:44.602Z,99762.98
2023-02-04T01:30:13.451Z,99764.52
2023-02-04T01:32:41.911Z,99769.36
2023-02-04T01:35:10.736Z,99771.07
2023-02-04T01:37:40.136Z,99768.34
2023-02-04T01:40:10.401Z,99767.31
2023-02-04T01:42:38.746Z,99767.48
2023-02-04T01:45:06.991Z,99769.79
2023-02-04T01:47:35.784Z,99767.39
2023-02-04T01:50:04.039Z,99768.23
2023-02-04T01:52:35.271Z,99770.05
2023-02-04T01:55:03.396Z,99769.46
2023-02-04T01:57:31.962Z,99770.11
2023-02-04T02:00:00.239Z,99772.96
2023-02-04T02:02:42.582Z,99775.92
2023-02-04T02:05:13.273Z,99775.44
2023-02-04T02:07:42.909Z,99775.64
2023-02-04T02:10:11.894Z,99775.73
2023-02-04T02:12:39.793Z,99776.83
2023-02-04T02:15:09.140Z,99785.23
2023-02-04T02:17:38.133Z,99783.33
2023-02-04T02:20:07.844Z,99784.36
2023-02-04T02:22:44.838Z,99786.11
2023-02-04T02:25:13.596Z,99791.92
2023-02-04T02:27:44.458Z,99792.20
2023-02-04T02:30:15.158Z,99789.63
2023-02-04T02:32:45.065Z,99786.81
2023-02-04T02:35:13.251Z,99785.33
2023-02-04T02:37:41.835Z,99785.25
2023-02-04T02:40:10.675Z,99781.02
2023-02-04T02:42:43.457Z,99783.48
2023-02-04T02:45:20.670Z,99782.05
2023-02-04T02:47:48.993Z,99778.31
2023-02-04T02:50:18.762Z,99777.09
2023-02-04T02:52:47.589Z,99780.64
2023-02-04T02:55:17.298Z,99779.45
2023-02-04T02:57:46.782Z,99776.08
2023-02-04T03:00:19.309Z,99779.31
2023-02-04T03:02:53.876Z,99773.51
2023-02-04T03:05:22.066Z,99777.75
2023-02-04T03:07:50.447Z,99780.66
2023-02-04T03:10:18.751Z,99779.50
2023-02-04T03:12:46.996Z,99778.65
2023-02-04T03:15:15.172Z,99774.33
2023-02-04T03:17:43.343Z,99775.57
2023-02-04T03:20:12.234Z,99779.11
2023-02-04T03:22:40.664Z,99782.92
2023-02-04T03:25:08.890Z,99776.27
2023-02-04T03:27:38.431Z,99776.84
2023-02-04T03:30:08.809Z,99775.71
2023-02-04T03:32:37.189Z,99772.89
2023-02-04T03:35:05.866Z,99774.81
2023-02-04T03:37:34.998Z,99776.08
2023-02-04T03:40:03.470Z,99775.81
2023-02-04T03:42:32.676Z,99777.55
2023-02-04T03:45:00.853Z,99779.29
2023-02-04T03:47:29.114Z,99777.77
2023-02-04T03:49:57.441Z,99775.94
2023-02-04T03:52:25.504Z,99776.41
2023-02-04T03:54:53.589Z,99773.50
2023-02-04T03:57:21.818Z,99776.47
2023-02-04T03:59:50.009Z,99777.98
2023-02-04T04:02:18.056Z,99778.92
2023-02-04T04:04:46.126Z,99783.35
2023-02-04T04:07:14.332Z,99783.19
2023-02-04T04:09:42.985Z,99788.10
2023-02-04T04:12:11.165Z,99789.29
2023-02-04T04:14:40.526Z,99793.10
2023-02-04T04:17:08.759Z,99795.05
2023-02-04T04:19:36.862Z,99795.15
2023-02-04T04:22:05.096Z,99793.44
2023-02-04T04:24:33.660Z,99797.89
2023-02-04T04:27:01.950Z,99797.02
2023-02-04T04:29:30.525Z,99793.81
2023-02-04T04:31:58.714Z,99797.55
2023-02-04T04:34:26.806Z,99794.60
2023-02-04T04:36:55.044Z,99795.46
2023-02-04T04:39:23.112Z,99799.41
2023-02-04T04:41:51.249Z,99798.52
2023-02-04T04:44:19.294Z,99798.41
2023-02-04T04:46:47.594Z,99803.42
2023-02-04T04:49:16.623Z,99802.63
2023-02-04T04:51:45.031Z,99803.14
2023-02-04T04:54:13.210Z,99804.17
2023-02-04T04:56:41.488Z,99805.54
2023-02-04T04:59:10.147Z,99805.34
2023-02-04T05:01:38.261Z,99810.79
2023-02-04T05:04:06.455Z,99812.86
2023-02-04T05:06:35.138Z,99821.41
2023-02-04T05:09:03.348Z,99823.90
2023-02-04T05:11:32.671Z,99823.73
2023-02-04T05:14:00.657Z,99828.00
2023-02-04T05:16:29.204Z,99829.83
2023-02-04T05:18:57.417Z,99837.11
2023-02-04T05:21:25.385Z,99841.52
2023-02-04T05:23:53.378Z,99843.40
2023-02-04T05:26:29.763Z,99849.56
2023-02-04T05:29:01.356Z,99850.02
2023-02-04T05:31:29.636Z,99848.35
2023-02-04T05:33:57.999Z,99853.41
2023-02-04T05:36:26.111Z,99861.13
2023-02-04T05:38:54.354Z,99863.33
2023-02-04T05:41:22.618Z,99865.91
2023-02-04T05:43:51.031Z,99870.17
2023-02-04T05:46:19.138Z,99869.83
2023-02-04T05:48:47.243Z,99872.34
2023-02-04T05:51:15.350Z,99878.67
2023-02-04T05:53:43.485Z,99882.68
2023-02-04T05:56:11.555Z,99886.25
2023-02-04T05:58:40.068Z,99885.02
2023-02-04T06:01:08.192Z,99884.84
2023-02-04T06:03:37.140Z,99883.55
2023-02-04T06:06:05.437Z,99889.45
2023-02-04T06:08:33.694Z,99889.33
2023-02-04T06:11:01.827Z,99894.33
2023-02-04T06:13:30.001Z,99895.35
2023-02-04T06:15:58.071Z,99894.29
2023-02-04T06:18:27.653Z,99899.46
2023-02-04T06:20:55.732Z,99900.64
2023-02-04T06:23:23.810Z,99902.66
2023-02-04T06:25:52.638Z,99905.98
2023-02-04T06:28:20.796Z,99909.79
2023-02-04T06:30:49.721Z,99910.77
2023-02-04T06:33:17.818Z,99909.36
2023-02-04T06:35:47.376Z,99912.36
2023-02-04T06:38:15.457Z,99919.70
2023-02-04T06:40:43.596Z,99928.42
2023-02-04T06:43:11.933Z,99929.90
2023-02-04T06:45:40.114Z,99932.73
2023-02-04T06:48:08.897Z,99936.78
2023-02-04T06:50:38.642Z,99936.94
2023-02-04T06:53:06.864Z,99939.86
2023-02-04T06:55:36.414Z,99940.58
2023-02-04T06:58:05.061Z,99942.79
2023-02-04T07:00:35.252Z,99941.39
2023-02-04T07:03:03.525Z,99943.48
2023-02-04T07:05:34.802Z,99937.27
2023-02-04T07:08:02.913Z,99932.83
2023-02-04T07:10:32.890Z,99931.53
2023-02-04T07:13:21.029Z,99935.14
2023-02-04T07:15:49.817Z,99939.06
2023-02-04T07:18:18.249Z,99941.23
2023-02-04T07:20:48.750Z,99940.87
2023-02-04T07:23:16.953Z,99945.20
2023-02-04T07:25:45.136Z,99943.58
2023-02-04T07:28:13.219Z,99944.66
2023-02-04T07:30:41.503Z,99942.47
2023-02-04T07:33:09.604Z,99944.23
2023-02-04T07:35:40.696Z,99943.16
2023-02-04T07:38:08.876Z,99944.91
2023-02-04T07:40:36.954Z,99942.31
2023-02-04T07:43:05.502Z,99942.92
2023-02-04T07:45:34.710Z,99944.67
2023-02-04T07:48:03.594Z,99949.64
2023-02-04T07:50:32.528Z,99950.39
2023-02-04T07:53:01.012Z,99956.45
2023-02-04T07:55:29.334Z,99957.61
2023-02-04T07:57:57.439Z,99959.04
2023-02-04T08:00:25.676Z,99962.39
2023-02-04T08:02:54.780Z,99961.70
2023-02-04T08:05:23.170Z,99963.19
2023-02-04T08:07:51.865Z,99965.19
2023-02-04T08:10:21.573Z,99965.50
2023-02-04T08:12:50.046Z,99964.51
2023-02-04T08:15:18.298Z,99969.76
2023-02-04T08:17:47.099Z,99969.55
2023-02-04T08:20:16.732Z,99973.65
2023-02-04T08:22:46.212Z,99973.56
2023-02-04T08:25:14.718Z,99977.56
2023-02-04T08:27:44.218Z,99978.86
2023-02-04T08:30:13.510Z,99981.54
2023-02-04T08:32:43.999Z,99983.66
2023-02-04T08:35:12.829Z,99985.55
2023-02-04T08:37:41.105Z,99985.90
2023-02-04T08:40:10.155Z,99988.70
2023-02-04T08:42:39.585Z,99988.52
2023-02-04T08:45:08.128Z,99987.98
2023-02-04T08:47:36.643Z,99988.92
2023-02-04T08:50:04.932Z,99988.30
2023-02-04T08:52:33.327Z,99990.45
2023-02-04T08:55:01.406Z,99990.91
2023-02-04T08:57:30.072Z,99985.48
2023-02-04T08:59:58.270Z,99979.89
2023-02-04T09:02:26.378Z,99975.29
2023-02-04T09:04:54.722Z,99978.23
2023-02-04T09:07:23.022Z,99975.83
2023-02-04T09:09:51.290Z,99973.73
2023-02-04T09:13:14.417Z,99979.45
2023-02-04T09:15:42.526Z,99976.64
2023-02-04T09:18:22.063Z,99974.27
2023-02-04T09:20:50.857Z,99977.09
2023-02-04T09:23:19.325Z,99973.04
2023-02-04T09:25:47.697Z,99973.77
2023-02-04T09:28:17.224Z,99972.42
2023-02-04T09:30:46.440Z,99969.27
2023-02-04T09:33:15.173Z,99966.53
2023-02-04T09:35:43.217Z,99962.17
2023-02-04T09:38:11.316Z,99961.56
2023-02-04T09:40:50.138Z,99963.33
2023-02-04T09:43:21.531Z,99964.47
2023-02-04T09:45:49.755Z,99963.02
2023-02-04T09:48:17.879Z,99968.09
2023-02-04T09:50:45.900Z,99964.39
2023-02-04T09:53:16.126Z,99965.61
2023-02-04T09:55:45.542Z,99959.80
2023-02-04T09:58:23.299Z,99961.15
2023-02-04T10:01:06.110Z,99960.95
2023-02-04T10:03:35.486Z,99964.36
2023-02-04T10:06:04.663Z,99963.63
2023-02-04T10:08:33.318Z,99963.63
2023-02-04T10:11:01.537Z,99967.45
2023-02-04T10:13:34.394Z,99971.84
2023-02-04T10:16:02.559Z,99974.64
2023-02-04T10:18:32.830Z,99976.24
2023-02-04T10:21:11.807Z,99974.46
2023-02-04T10:23:42.143Z,99972.17
2023-02-04T10:26:11.798Z,99975.96
2023-02-04T10:28:40.453Z,99973.52
2023-02-04T10:31:30.859Z,99975.21
2023-02-04T10:34:04.261Z,99981.36
2023-02-04T10:36:33.766Z,99983.23
2023-02-04T10:39:07.306Z,99982.38
2023-02-04T10:41:40.100Z,99983.52
2023-02-04T10:44:10.927Z,99983.17
2023-02-04T10:46:38.993Z,99985.02
2023-02-04T10:49:22.065Z,99982.15
2023-02-04T10:51:51.551Z,99982.98
2023-02-04T10:54:30.572Z,99982.44
2023-02-04T10:57:15.608Z,99987.61
2023-02-04T10:59:44.552Z,99993.70
2023-02-04T11:02:44.219Z,99993.02
2023-02-04T11:05:20.189Z,99997.80
2023-02-04T11:07:48.811Z,100002.30
2023-02-04T11:10:21.558Z,100005.56
2023-02-04T11:12:56.013Z,100002.79
2023-02-04T11:15:39.393Z,100009.95
2023-02-04T11:18:12.703Z,100007.77
2023-02-04T11:20:41.339Z,100006.25
2023-02-04T11:23:32.250Z,100012.63
2023-02-04T11:26:19.413Z,100006.95
2023-02-04T11:28:59.792Z,100009.91
2023-02-04T11:31:40.778Z,100013.85
2023-02-04T11:34:14.375Z,100008.73
2023-02-04T11:37:01.458Z,100010.80
2023-02-04T11:39:34.622Z,100012.20
2023-02-04T11:42:03.568Z,100010.71
2023-02-04T11:44:33.057Z,100013.34
2023-02-04T11:47:01.785Z,100014.95
2023-02-04T11:49:30.450Z,100019.99
2023-02-04T11:52:10.341Z,100022.75
2023-02-04T11:54:39.426Z,100024.64
2023-02-04T11:57:09.734Z,100027.15
2023-02-04T11:59:42.171Z,100034.48
2023-02-04T12:02:22.094Z,100037.43
2023-02-04T12:04:57.930Z,100034.89
2023-02-04T12:07:29.602Z,100035.48
2023-02-04T12:09:57.729Z,100042.41
2023-02-04T12:12:30.166Z,100041.19
2023-02-04T12:15:04.694Z,100043.59
2023-02-04T12:18:57.167Z,100049.58
2023-02-04T12:21:24.139Z,100048.76
2023-02-04T12:23:50.820Z,100053.08
2023-02-04T12:26:17.389Z,100053.18
2023-02-04T12:28:44.005Z,100060.14
2023-02-04T12:31:10.904Z,100062.11
2023-02-04T12:33:37.795Z,100062.76
2023-02-04T12:36:05.231Z,100063.96
2023-02-04T12:38:32.065Z,100066.59
2023-02-04T12:40:58.831Z,100066.50
2023-02-04T12:43:28.261Z,100070.05
2023-02-04T12:45:55.259Z,100069.83
2023-02-04T12:48:21.936Z,100073.50
2023-02-04T12:50:48.795Z,100074.28
2023-02-04T12:53:15.812Z,100073.95
2023-02-04T12:55:43.137Z,100079.27
2023-02-04T12:58:09.815Z,100079.16
2023-02-04T13:00:36.912Z,100079.67
2023-02-04T13:03:04.615Z,100083.29
2023-02-04T13:05:31.746Z,100086.78
2023-02-04T13:07:58.912Z,100090.59
2023-02-04T13:10:25.662Z,100088.39
2023-02-04T13:12:54.880Z,100087.34
2023-02-04T13:15:21.589Z,100087.42
2023-02-04T13:17:49.254Z,100090.02
2023-02-04T13:20:17.100Z,100095.46
2023-02-04T13:22:44.432Z,100095.38
2023-02-04T13:25:11.196Z,100098.27
2023-02-04T13:27:39.076Z,100101.29
2023-02-04T13:30:06.839Z,100102.30
2023-02-04T13:32:34.296Z,100103.56
2023-02-04T13:35:01.755Z,100101.23
2023-02-04T13:37:29.346Z,100108.20
2023-02-04T13:39:56.054Z,100105.95
2023-02-04T13:42:23.512Z,100109.05
2023-02-04T13:44:50.520Z,100110.14
2023-02-04T13:47:17.248Z,100112.95
2023-02-04T13:49:44.146Z,100113.27
2023-02-04T13:52:12.734Z,100116.15
2023-02-04T13:54:39.893Z,100119.90
2023-02-04T13:57:06.722Z,100123.15
2023-02-04T13:59:33.573Z,100129.15
2023-02-04T14:02:01.229Z,100125.17
2023-02-04T14:04:28.585Z,100121.04
2023-02-04T14:06:56.039Z,100125.13
2023-02-04T14:09:24.734Z,100125.98
2023-02-04T14:11:51.463Z,100128.11
2023-02-04T14:14:18.848Z,100131.77
2023-02-04T14:16:45.814Z,100126.90
2023-02-04T14:19:13.850Z,100127.70
2023-02-04T14:21:41.598Z,100132.76
2023-02-04T14:24:08.878Z,100135.50
2023-02-04T14:26:36.813Z,100137.92
2023-02-04T14:29:04.174Z,100138.36
2023-02-04T14:31:31.138Z,100143.30
2023-02-04T14:33:58.688Z,100146.94
2023-02-04T14:36:25.310Z,100144.05
2023-02-04T14:38:51.969Z,100148.30
2023-02-04T14:41:20.777Z,100148.80
2023-02-04T14:43:47.460Z,100147.84
2023-02-04T14:46:14.632Z,100149.05
2023-02-04T14:48:41.506Z,100151.70
2023-02-04T14:51:08.093Z,100152.62
2023-02-04T14:53:34.677Z,100159.52
2023-02-04T14:56:01.636Z,100156.83
2023-02-04T14:58:28.716Z,100161.64
2023-02-04T15:00:55.841Z,100162.90
2023-02-04T15:03:22.847Z,100160.33
2023-02-04T15:05:49.701Z,100167.52
2023-02-04T15:08:17.135Z,100169.26
2023-02-04T15:10:43.739Z,100167.55
2023-02-04T15:13:10.825Z,100171.50
2023-02-04T15:15:37.581Z,100175.25
2023-02-04T15:18:04.508Z,100178.56
2023-02-04T15:20:31.351Z,100178.91
2023-02-04T15:23:00.597Z,100187.00
2023-02-04T15:25:27.796Z,100188.80
2023-02-04T15:27:54.695Z,100192.80
2023-02-04T15:30:21.476Z,100197.06
2023-02-04T15:32:48.567Z,100199.41
2023-02-04T15:35:15.409Z,100208.64
2023-02-04T15:37:42.429Z,100211.83
2023-02-04T15:40:10.427Z,100215.66
2023-02-04T15:42:37.568Z,100218.92
2023-02-04T15:45:04.908Z,100219.91
2023-02-04T15:47:32.146Z,100225.33
2023-02-04T15:49:58.926Z,100225.42
2023-02-04T15:52:26.633Z,100222.94
2023-02-04T15:54:54.719Z,100229.66
2023-02-04T15:57:21.277Z,100230.83
2023-02-04T15:59:47.998Z,100232.20
2023-02-04T16:02:15.299Z,100234.74
2023-02-04T16:04:44.651Z,100232.90
2023-02-04T16:07:11.559Z,100230.92
2023-02-04T16:09:38.480Z,100233.02
2023-02-04T16:12:05.509Z,100234.35
2023-02-04T16:14:32.739Z,100238.73
2023-02-04T16:17:01.304Z,100242.17
2023-02-04T16:19:28.641Z,100242.34
2023-02-04T16:21:55.783Z,100244.19
2023-02-04T16:24:23.198Z,100245.36
2023-02-04T16:26:50.229Z,100246.04
2023-02-04T16:29:17.609Z,100251.47
2023-02-04T16:31:44.837Z,100249.59
2023-02-04T16:34:11.958Z,100258.17
2023-02-04T16:36:38.726Z,100259.80
2023-02-04T16:39:05.894Z,100260.35
2023-02-04T16:41:32.689Z,100260.10
2023-02-04T16:43:59.949Z,100267.80
2023-02-04T16:46:28.097Z,100263.55
2023-02-04T16:48:55.302Z,100269.46
2023-02-04T16:51:24.182Z,100269.55
2023-02-04T16:53:51.013Z,100270.28
2023-02-04T16:56:17.755Z,100272.52
2023-02-04T16:58:44.602Z,100276.80
2023-02-04T17:01:11.750Z,100276.80
2023-02-04T17:03:39.325Z,100277.70
2023-02-04T17:06:06.752Z,100276.42
2023-02-04T17:08:34.542Z,100280.69
2023-02-04T17:11:20.022Z,100289.46
2023-02-04T17:13:47.160Z,100287.63
2023-02-04T17:16:15.986Z,100287.95
2023-02-04T17:18:42.793Z,100289.64
2023-02-04T17:21:10.009Z,100289.50
2023-02-04T17:23:36.997Z,100290.90
2023-02-04T17:26:04.651Z,100291.22
2023-02-04T17:28:31.999Z,100292.20
2023-02-04T17:30:58.762Z,100296.04
2023-02-04T17:33:25.585Z,100299.38
2023-02-04T17:35:52.503Z,100301.02
2023-02-04T17:38:19.204Z,100299.30
2023-02-04T17:40:46.275Z,100302.82
2023-02-04T17:43:12.925Z,100306.02
2023-02-04T17:45:40.110Z,100302.91
2023-02-04T17:48:07.163Z,100308.59
2023-02-04T17:53:03.714Z,100313.75
2023-02-04T17:55:32.812Z,100314.05
2023-02-04T17:58:00.405Z,100317.67
2023-02-04T18:00:28.433Z,100316.20
2023-02-04T18:02:55.440Z,100320.61
2023-02-04T18:05:27.079Z,100321.23
2023-02-04T18:08:13.889Z,100323.15
2023-02-04T18:10:45.649Z,100324.80
2023-02-04T18:13:13.984Z,100328.59
2023-02-04T18:15:43.389Z,100335.41
2023-02-04T18:18:21.742Z,100338.77
2023-02-04T18:21:00.865Z,100337.47
2023-02-04T18:23:29.435Z,100337.88
2023-02-04T18:26:00.950Z,100339.72
2023-02-04T18:28:27.806Z,100344.06
2023-02-04T18:31:03.079Z,100344.09
2023-02-04T18:33:29.846Z,100352.42
2023-02-04T18:35:58.016Z,100359.01
2023-02-04T18:38:31.608Z,100357.77
2023-02-04T18:41:12.673Z,100354.46
2023-02-04T18:43:39.546Z,100359.30
2023-02-04T18:46:26.170Z,100365.35
2023-02-04T18:49:01.402Z,100368.98
2023-02-04T18:51:31.546Z,100372.05
2023-02-04T18:54:01.032Z,100373.70
2023-02-04T18:56:30.791Z,100375.15
2023-02-04T18:58:57.349Z,100372.95
2023-02-04T19:01:27.049Z,100382.85
2023-02-04T19:03:55.596Z,100387.73
2023-02-04T19:06:31.323Z,100393.13
2023-02-04T19:09:29.857Z,100394.61
2023-02-04T19:11:57.171Z,100399.22
2023-02-04T19:14:38.344Z,100399.08
2023-02-04T19:17:25.778Z,100402.50
2023-02-04T19:20:00.141Z,100408.78
2023-02-04T19:22:53.124Z,100411.92
2023-02-04T19:25:33.532Z,100409.41
2023-02-04T19:28:02.301Z,100414.94
2023-02-04T19:30:29.702Z,100415.65
2023-02-04T19:33:01.366Z,100410.82
2023-02-04T19:35:34.853Z,100413.35
2023-02-04T19:38:02.276Z,100411.05
2023-02-04T19:40:34.339Z,100416.83
2023-02-04T19:43:15.308Z,100413.47
2023-02-04T19:45:42.224Z,100420.30
2023-02-04T19:48:19.537Z,100420.56
2023-02-04T19:50:46.396Z,100425.73
2023-02-04T19:53:24.690Z,100417.58
2023-02-04T19:55:52.049Z,100423.88
2023-02-04T19:58:28.433Z,100426.67
2023-02-04T20:01:02.927Z,100425.35
2023-02-04T20:03:36.067Z,100432.30
2023-02-04T20:06:09.322Z,100428.56
2023-02-04T20:08:53.445Z,100429.73
2023-02-04T20:11:29.238Z,100429.39
2023-02-04T20:14:13.468Z,100430.25
2023-02-04T20:16:57.544Z,100431.47
2023-02-04T20:19:32.190Z,100438.06
2023-02-04T20:22:17.336Z,100436.63
2023-02-04T20:24:45.791Z,100437.73
2023-02-04T20:27:21.241Z,100439.92
2023-02-04T20:29:49.507Z,100434.75
2023-02-04T20:32:25.624Z,100436.71
2023-02-04T20:34:53.554Z,100438.59
2023-02-04T20:37:25.907Z,100433.86
2023-02-04T20:39:52.860Z,100442.52
2023-02-04T20:42:32.459Z,100449.45
2023-02-04T20:45:14.423Z,100450.23
2023-02-04T20:47:44.204Z,100448.91
2023-02-04T20:50:33.065Z,100448.64
2023-02-04T20:53:05.775Z,100448.27
2023-02-04T20:55:33.457Z,100448.65
2023-02-04T20:58:20.939Z,100448.52
2023-02-04T21:00:51.513Z,100445.69
2023-02-04T21:03:23.442Z,100449.73
2023-02-04T21:05:51.875Z,100459.04
2023-02-04T21:08:23.751Z,100452.11
2023-02-04T21:10:51.015Z,100459.27
2023-02-04T21:13:17.756Z,100458.35
2023-02-04T21:15:47.637Z,100461.70
2023-02-04T21:18:14.720Z,100462.86
2023-02-04T21:20:41.293Z,100461.23
2023-02-04T21:23:08.675Z,100459.09
2023-02-04T21:25:35.626Z,100462.11
2023-02-04T21:28:04.512Z,100464.41
2023-02-04T21:30:31.592Z,100468.94
2023-02-04T21:32:59.356Z,100468.05
2023-02-04T21:35:26.172Z,100463.60
2023-02-04T21:37:54.137Z,100471.04
2023-02-04T21:40:21.429Z,100469.91
2023-02-04T21:42:48.718Z,100472.16
2023-02-04T21:45:16.966Z,100474.73
2023-02-04T21:47:44.819Z,100478.11
2023-02-04T21:50:13.811Z,100481.84
2023-02-04T21:52:41.787Z,100485.50
2023-02-04T21:55:09.059Z,100483.66
2023-02-04T21:57:36.896Z,100483.93
2023-02-04T22:00:05.183Z,100490.06
2023-02-04T22:02:32.098Z,100493.02
2023-02-04T22:04:58.874Z,100485.96
2023-02-04T22:07:25.498Z,100492.27
2023-02-04T22:09:52.276Z,100494.05
2023-02-04T22:12:19.165Z,100494.45
2023-02-04T22:14:45.795Z,100497.11
2023-02-04T22:17:12.570Z,100500.86
2023-02-04T22:19:39.299Z,100497.10
2023-02-04T22:22:05.953Z,100493.03
2023-02-04T22:24:33.703Z,100492.46
2023-02-04T22:27:00.374Z,100486.06
2023-02-04T22:29:29.459Z,100484.40
2023-02-04T22:31:56.058Z,100482.54
2023-02-04T22:34:24.454Z,100489.54
2023-02-04T22:36:52.582Z,100497.86
2023-02-04T22:39:19.267Z,100496.61
2023-02-04T22:41:46.414Z,100496.96
2023-02-04T22:44:13.503Z,100502.33
2023-02-04T22:46:40.281Z,100498.73
2023-02-04T22:49:07.082Z,100502.23
2023-02-04T22:51:34.694Z,100500.35
2023-02-04T22:54:01.459Z,100500.19
2023-02-04T22:56:28.054Z,100502.01
2023-02-04T22:58:54.583Z,100505.36
2023-02-04T23:01:21.186Z,100506.88
2023-02-04T23:03:48.316Z,100510.57
2023-02-04T23:06:15.284Z,100516.23
2023-02-04T23:08:42.237Z,100519.81
2023-02-04T23:11:11.247Z,100519.56
2023-02-04T23:13:39.026Z,100516.77
2023-02-04T23:16:06.349Z,100513.67
2023-02-04T23:18:33.460Z,100515.64
2023-02-04T23:21:00.331Z,100517.92
2023-02-04T23:23:28.823Z,100519.41
2023-02-04T23:25:55.802Z,100520.34
2023-02-04T23:28:22.468Z,100515.20
2023-02-04T23:30:52.154Z,100515.85
2023-02-04T23:33:19.010Z,100517.71
2023-02-04T23:35:45.612Z,100521.02
2023-02-04T23:38:12.390Z,100522.36
2023-02-04T23:40:39.267Z,100523.06
2023-02-04T23:43:06.238Z,100519.95
2023-02-04T23:45:33.295Z,100521.27
2023-02-04T23:48:00.136Z,100526.71
2023-02-04T23:50:26.849Z,100527.36
2023-02-04T23:52:54.108Z,100529.88
2023-02-04T23:55:20.701Z,100533.69
2023-02-04T23:57:49.046Z,100535.65
